createdAt,value
2023-05-13T00:02:03.218Z,45.58
2023-05-13T00:04:30.268Z,45.89
2023-05-13T00:06:57.414Z,45.88
2023-05-13T00:09:24.567Z,45.00
2023-05-13T00:11:51.715Z,44.34
2023-05-13T00:14:18.967Z,43.92
2023-05-13T00:16:46.055Z,43.56
2023-05-13T00:19:13.243Z,43.57
2023-05-13T00:21:40.724Z,43.86
2023-05-13T00:24:07.852Z,43.43
2023-05-13T00:26:34.815Z,43.43
2023-05-13T00:29:01.759Z,43.25
2023-05-13T00:31:29.296Z,43.24
2023-05-13T00:33:56.673Z,43.15
2023-05-13T00:36:24.180Z,42.99
2023-05-13T00:38:51.194Z,42.63
2023-05-13T00:41:18.385Z,42.40
2023-05-13T00:43:47.117Z,42.33
2023-05-13T00:46:15.072Z,42.31
2023-05-13T00:48:42.234Z,41.18
2023-05-13T00:51:09.057Z,40.39
2023-05-13T00:53:35.945Z,40.34
2023-05-13T00:56:03.169Z,40.28
2023-05-13T00:58:30.628Z,39.86
2023-05-13T01:01:13.057Z,40.08
2023-05-13T01:03:58.007Z,40.29
2023-05-13T01:06:48.809Z,40.13
2023-05-13T01:09:25.891Z,40.21
2023-05-13T01:11:53.338Z,40.36
2023-05-13T01:14:25.927Z,40.27
2023-05-13T01:16:58.060Z,40.10
2023-05-13T01:19:32.727Z,39.61
2023-05-13T01:21:59.654Z,39.27
2023-05-13T01:24:27.057Z,39.41
2023-05-13T01:26:54.360Z,39.43
2023-05-13T01:29:21.919Z,39.32
2023-05-13T01:31:49.789Z,39.00
2023-05-13T01:34:19.184Z,38.58
2023-05-13T01:36:46.134Z,38.23
2023-05-13T01:39:13.389Z,38.70
2023-05-13T01:41:40.741Z,39.00
2023-05-13T01:44:08.294Z,38.86
2023-05-13T01:46:37.014Z,39.07
2023-05-13T01:49:04.544Z,39.04
2023-05-13T01:51:31.690Z,38.84
2023-05-13T01:53:58.737Z,39.05
2023-05-13T01:56:26.295Z,39.08
2023-05-13T01:58:53.543Z,39.57
2023-05-13T02:01:22.431Z,38.83
2023-05-13T02:03:50.462Z,38.58
2023-05-13T02:06:17.756Z,38.82
2023-05-13T02:08:44.813Z,38.70
2023-05-13T02:11:11.854Z,38.60
2023-05-13T02:13:39.111Z,39.00
2023-05-13T02:16:06.058Z,39.44
2023-05-13T02:18:33.289Z,39.30
2023-05-13T02:21:00.451Z,39.34
2023-05-13T02:23:29.242Z,38.97
2023-05-13T02:25:56.416Z,39.24
2023-05-13T02:28:24.052Z,39.48
2023-05-13T02:30:51.197Z,39.85
2023-05-13T02:33:18.348Z,40.13
2023-05-13T02:35:45.732Z,39.77
2023-05-13T02:38:13.056Z,39.79
2023-05-13T02:40:40.103Z,39.71
2023-05-13T02:43:07.360Z,40.05
2023-05-13T02:45:46.833Z,40.38
2023-05-13T02:48:14.369Z,40.40
2023-05-13T02:50:41.706Z,40.26
2023-05-13T02:53:09.471Z,40.60
2023-05-13T02:55:38.072Z,41.01
2023-05-13T02:58:05.513Z,41.15
2023-05-13T03:00:32.598Z,41.37
2023-05-13T03:02:59.909Z,41.35
2023-05-13T03:05:29.204Z,41.39
2023-05-13T03:07:57.903Z,41.33
2023-05-13T03:10:26.180Z,41.17
2023-05-13T03:12:53.440Z,41.07
2023-05-13T03:15:20.781Z,40.85
2023-05-13T03:17:47.919Z,40.84
2023-05-13T03:20:15.080Z,40.66
2023-05-13T03:22:42.661Z,40.39
2023-05-13T03:25:11.116Z,40.34
2023-05-13T03:27:44.409Z,40.44
2023-05-13T03:30:12.070Z,40.65
2023-05-13T03:32:53.754Z,40.25
2023-05-13T03:35:20.917Z,40.31
2023-05-13T03:37:48.059Z,40.34
2023-05-13T03:40:16.026Z,40.02
2023-05-13T03:42:43.175Z,40.16
2023-05-13T03:45:11.256Z,40.34
2023-05-13T03:47:39.291Z,40.55
2023-05-13T03:50:08.823Z,40.30
2023-05-13T03:52:40.482Z,40.62
2023-05-13T03:55:08.041Z,40.95
2023-05-13T03:57:35.705Z,41.26
2023-05-13T04:00:03.606Z,41.24
2023-05-13T04:02:42.192Z,41.32
2023-05-13T04:05:09.514Z,41.30
2023-05-13T04:07:37.652Z,41.55
2023-05-13T04:10:05.483Z,41.48
2023-05-13T04:12:33.035Z,41.39
2023-05-13T04:15:01.128Z,41.34
2023-05-13T04:17:28.506Z,41.23
2023-05-13T04:19:55.711Z,41.16
2023-05-13T04:22:23.988Z,40.86
2023-05-13T04:24:55.851Z,40.73
2023-05-13T04:27:23.681Z,40.56
2023-05-13T04:29:53.165Z,39.98
2023-05-13T04:32:23.216Z,39.97
2023-05-13T04:34:53.863Z,39.97
2023-05-13T04:37:21.121Z,39.92
2023-05-13T04:39:49.293Z,39.64
2023-05-13T04:42:17.679Z,39.72
2023-05-13T04:44:45.025Z,39.93
2023-05-13T04:47:12.077Z,39.79
2023-05-13T04:49:39.218Z,39.62
2023-05-13T04:52:06.705Z,39.86
2023-05-13T04:54:35.570Z,39.75
2023-05-13T04:57:03.039Z,39.94
2023-05-13T04:59:31.103Z,39.45
2023-05-13T05:01:58.396Z,39.34
2023-05-13T05:04:26.626Z,39.51
2023-05-13T05:06:53.901Z,39.47
2023-05-13T05:09:22.166Z,39.27
2023-05-13T05:11:51.041Z,39.02
2023-05-13T05:14:20.241Z,38.98
2023-05-13T05:16:48.275Z,38.71
2023-05-13T05:19:15.603Z,38.64
2023-05-13T05:21:43.052Z,38.94
2023-05-13T05:24:10.579Z,39.12
2023-05-13T05:26:37.727Z,38.81
2023-05-13T05:29:05.896Z,38.88
2023-05-13T05:34:57.747Z,38.11
2023-05-13T05:37:24.893Z,38.12
2023-05-13T05:39:51.943Z,37.92
2023-05-13T05:42:18.985Z,37.80
2023-05-13T05:44:46.350Z,37.66
2023-05-13T05:47:13.610Z,37.80
2023-05-13T05:49:40.744Z,37.71
2023-05-13T05:52:07.890Z,37.58
2023-05-13T05:54:34.937Z,37.48
2023-05-13T05:57:02.189Z,37.65
2023-05-13T05:59:29.447Z,37.85
2023-05-13T06:01:56.548Z,37.68
2023-05-13T06:04:25.146Z,37.32
2023-05-13T06:06:52.568Z,37.28
2023-05-13T06:09:20.287Z,36.78
2023-05-13T06:11:49.283Z,36.82
2023-05-13T06:14:17.456Z,36.50
2023-05-13T06:16:44.508Z,36.33
2023-05-13T06:19:11.735Z,36.31
2023-05-13T06:21:38.939Z,36.37
2023-05-13T06:24:06.976Z,36.64
2023-05-13T06:26:33.946Z,36.88
2023-05-13T06:29:01.072Z,36.87
2023-05-13T06:31:28.144Z,36.92
2023-05-13T06:33:55.279Z,37.55
2023-05-13T06:36:24.929Z,37.67
2023-05-13T06:38:53.361Z,37.68
2023-05-13T06:41:22.968Z,37.77
2023-05-13T06:43:51.547Z,37.81
2023-05-13T06:46:22.738Z,38.00
2023-05-13T06:48:52.616Z,37.33
2023-05-13T06:51:19.852Z,36.59
2023-05-13T06:53:47.618Z,36.15
2023-05-13T06:56:14.663Z,35.36
2023-05-13T06:58:41.711Z,34.89
2023-05-13T07:01:08.794Z,34.65
2023-05-13T07:03:36.634Z,34.34
2023-05-13T07:06:04.814Z,33.91
2023-05-13T07:08:31.841Z,33.93
2023-05-13T07:10:58.897Z,33.51
2023-05-13T07:13:26.038Z,33.22
2023-05-13T07:15:53.286Z,33.20
2023-05-13T07:18:20.410Z,32.64
2023-05-13T07:20:47.584Z,32.79
2023-05-13T07:23:14.633Z,31.76
2023-05-13T07:25:41.795Z,31.75
2023-05-13T07:28:09.648Z,32.09
2023-05-13T07:30:36.722Z,32.53
2023-05-13T07:33:03.995Z,33.03
2023-05-13T07:35:31.407Z,33.03
2023-05-13T07:37:58.455Z,33.22
2023-05-13T07:40:25.797Z,33.23
2023-05-13T07:42:52.881Z,32.73
2023-05-13T07:45:20.070Z,33.13
2023-05-13T07:47:47.294Z,33.05
2023-05-13T07:50:14.510Z,32.84
2023-05-13T07:52:42.064Z,33.10
2023-05-13T07:55:11.000Z,32.88
2023-05-13T07:57:38.115Z,32.98
2023-05-13T08:00:06.098Z,32.89
2023-05-13T08:02:40.086Z,32.60
2023-05-13T08:05:07.930Z,32.22
2023-05-13T08:07:35.105Z,32.60
2023-05-13T08:10:02.151Z,32.22
2023-05-13T08:12:29.204Z,32.36
2023-05-13T08:14:56.243Z,31.87
2023-05-13T08:17:23.572Z,31.59
2023-05-13T08:19:50.757Z,30.98
2023-05-13T08:22:17.747Z,30.26
2023-05-13T08:24:44.860Z,29.83
2023-05-13T08:27:13.091Z,29.92
2023-05-13T08:29:42.217Z,30.04
2023-05-13T08:32:09.475Z,29.96
2023-05-13T08:34:37.055Z,30.36
2023-05-13T08:37:04.582Z,31.30
2023-05-13T08:39:31.728Z,31.39
2023-05-13T08:41:58.775Z,31.11
2023-05-13T08:44:29.004Z,30.83
2023-05-13T08:47:22.474Z,30.60
2023-05-13T08:49:50.027Z,30.58
2023-05-13T08:52:18.760Z,31.21
2023-05-13T08:54:46.085Z,31.53
2023-05-13T08:57:13.147Z,31.54
2023-05-13T08:59:40.185Z,30.74
2023-05-13T09:02:07.307Z,30.42
2023-05-13T09:04:37.918Z,30.43
2023-05-13T09:07:08.288Z,30.53
2023-05-13T09:09:36.029Z,31.13
2023-05-13T09:12:03.788Z,31.70
2023-05-13T09:14:34.422Z,31.42
2023-05-13T09:17:01.899Z,31.19
2023-05-13T09:19:29.080Z,30.95
2023-05-13T09:21:57.402Z,30.86
2023-05-13T09:24:24.552Z,30.70
2023-05-13T09:26:51.939Z,30.59
2023-05-13T09:29:31.147Z,30.66
2023-05-13T09:32:01.007Z,31.19
2023-05-13T09:34:30.864Z,31.07
2023-05-13T09:36:57.888Z,30.52
2023-05-13T09:39:25.057Z,30.01
2023-05-13T09:41:53.031Z,29.99
2023-05-13T09:44:21.645Z,28.45
2023-05-13T09:46:48.796Z,28.20
2023-05-13T09:49:15.909Z,27.62
2023-05-13T09:51:44.180Z,28.05
2023-05-13T09:54:12.596Z,29.08
2023-05-13T09:56:40.041Z,28.45
2023-05-13T09:59:07.009Z,29.61
2023-05-13T10:01:35.383Z,30.40
2023-05-13T10:04:03.490Z,30.64
2023-05-13T10:06:30.771Z,31.29
2023-05-13T10:08:59.024Z,31.65
2023-05-13T10:11:26.029Z,32.23
2023-05-13T10:13:56.188Z,32.74
2023-05-13T10:16:24.151Z,33.48
2023-05-13T10:18:52.096Z,33.43
2023-05-13T10:21:22.172Z,33.41
2023-05-13T10:23:52.113Z,33.62
2023-05-13T10:26:20.467Z,33.71
2023-05-13T10:28:48.656Z,34.04
2023-05-13T10:31:16.629Z,34.21
2023-05-13T10:33:43.847Z,33.39
2023-05-13T10:36:21.545Z,33.17
2023-05-13T10:39:16.570Z,31.16
2023-05-13T10:42:08.784Z,29.26
2023-05-13T10:44:35.947Z,28.88
2023-05-13T10:47:03.287Z,29.23
2023-05-13T10:49:34.886Z,29.16
2023-05-13T10:52:06.401Z,29.47
2023-05-13T10:54:38.978Z,30.76
2023-05-13T10:57:06.527Z,30.65
2023-05-13T10:59:35.616Z,30.79
2023-05-13T11:02:04.186Z,30.45
2023-05-13T11:04:31.453Z,30.17
2023-05-13T11:06:59.119Z,30.35
2023-05-13T11:09:26.576Z,30.30
2023-05-13T11:11:54.449Z,30.27
2023-05-13T11:14:22.720Z,30.73
2023-05-13T11:17:02.195Z,30.71
2023-05-13T11:19:30.819Z,30.29
2023-05-13T11:21:59.358Z,30.38
2023-05-13T11:24:26.552Z,29.77
2023-05-13T11:26:56.649Z,28.47
2023-05-13T11:29:32.268Z,28.62
2023-05-13T11:32:01.208Z,28.01
2023-05-13T11:34:28.596Z,26.99
2023-05-13T11:37:05.051Z,26.37
2023-05-13T11:39:32.612Z,25.76
2023-05-13T11:42:02.047Z,25.28
2023-05-13T11:44:29.073Z,24.85
2023-05-13T11:46:56.530Z,24.40
2023-05-13T11:49:33.838Z,23.92
2023-05-13T11:52:02.504Z,24.05
2023-05-13T11:54:29.640Z,24.10
2023-05-13T11:56:56.804Z,23.56
2023-05-13T11:59:24.285Z,23.64
2023-05-13T12:02:01.805Z,23.69
2023-05-13T12:04:32.090Z,23.81
2023-05-13T12:06:59.315Z,23.78
2023-05-13T12:09:26.377Z,23.76
2023-05-13T12:11:54.129Z,23.83
2023-05-13T12:14:21.202Z,23.87
2023-05-13T12:16:48.607Z,23.16
2023-05-13T12:19:15.946Z,23.98
2023-05-13T12:21:43.152Z,29.24
2023-05-13T12:24:20.745Z,30.96
2023-05-13T12:26:48.186Z,31.29
2023-05-13T12:29:15.334Z,31.59
2023-05-13T12:31:43.885Z,32.21
2023-05-13T12:34:11.307Z,31.78
2023-05-13T12:36:39.131Z,31.24
2023-05-13T12:39:07.824Z,31.33
2023-05-13T12:41:36.207Z,31.32
2023-05-13T12:44:10.516Z,31.00
2023-05-13T12:46:38.017Z,31.00
2023-05-13T12:49:05.634Z,30.23
2023-05-13T12:51:35.583Z,30.27
2023-05-13T12:54:02.575Z,29.91
2023-05-13T12:56:29.637Z,29.09
2023-05-13T12:58:56.900Z,27.30
2023-05-13T13:01:23.985Z,27.03
2023-05-13T13:03:51.149Z,27.39
2023-05-13T13:06:18.338Z,27.11
2023-05-13T13:08:46.033Z,26.99
2023-05-13T13:11:19.063Z,26.48
2023-05-13T13:13:46.688Z,26.11
2023-05-13T13:16:14.343Z,25.91
2023-05-13T13:18:42.056Z,26.10
2023-05-13T13:21:10.567Z,26.04
2023-05-13T13:23:37.729Z,26.07
2023-05-13T13:26:04.864Z,25.90
2023-05-13T13:28:32.031Z,25.86
2023-05-13T13:31:00.309Z,25.51
2023-05-13T13:33:27.739Z,24.91
2023-05-13T13:35:54.987Z,25.41
2023-05-13T13:38:37.188Z,25.63
2023-05-13T13:41:04.242Z,25.55
2023-05-13T13:43:31.387Z,25.76
2023-05-13T13:45:58.769Z,25.99
2023-05-13T13:48:26.098Z,25.84
2023-05-13T13:50:54.373Z,26.05
2023-05-13T13:53:22.034Z,25.87
2023-05-13T13:55:49.181Z,26.01
2023-05-13T13:58:16.541Z,27.02
2023-05-13T14:00:43.589Z,28.56
2023-05-13T14:03:10.734Z,29.32
2023-05-13T14:05:37.984Z,29.59
2023-05-13T14:08:05.951Z,30.45
2023-05-13T14:10:33.203Z,31.92
2023-05-13T14:13:00.249Z,33.59
2023-05-13T14:15:29.140Z,33.92
2023-05-13T14:17:56.642Z,33.86
2023-05-13T14:20:25.139Z,34.17
2023-05-13T14:22:52.435Z,34.22
2023-05-13T14:25:19.481Z,33.43
2023-05-13T14:27:46.533Z,33.25
2023-05-13T14:30:13.683Z,33.69
2023-05-13T14:32:45.287Z,33.80
2023-05-13T14:35:13.128Z,33.47
2023-05-13T14:37:40.870Z,33.02
2023-05-13T14:40:09.721Z,32.38
2023-05-13T14:42:36.752Z,32.12
2023-05-13T14:45:04.665Z,31.63
2023-05-13T14:47:32.202Z,31.06
2023-05-13T14:49:59.306Z,30.66
2023-05-13T14:52:26.324Z,30.28
2023-05-13T14:54:54.382Z,30.21
2023-05-13T14:57:21.530Z,30.13
2023-05-13T14:59:48.695Z,30.49
2023-05-13T15:02:17.758Z,30.84
2023-05-13T15:04:44.921Z,31.40
2023-05-13T15:07:12.030Z,31.78
2023-05-13T15:09:39.220Z,31.82
2023-05-13T15:12:07.507Z,32.23
2023-05-13T15:14:34.463Z,33.08
2023-05-13T15:17:01.571Z,33.25
2023-05-13T15:19:28.853Z,33.66
2023-05-13T15:21:56.305Z,33.94
2023-05-13T15:24:23.554Z,34.00
2023-05-13T15:26:50.908Z,33.47
2023-05-13T15:29:18.062Z,33.08
2023-05-13T15:31:45.212Z,33.16
2023-05-13T15:34:12.370Z,32.79
2023-05-13T15:36:39.611Z,32.62
2023-05-13T15:39:06.880Z,32.49
2023-05-13T15:41:33.910Z,32.23
2023-05-13T15:44:00.962Z,32.36
2023-05-13T15:46:28.188Z,32.32
2023-05-13T15:48:55.671Z,32.49
2023-05-13T15:51:23.017Z,32.59
2023-05-13T15:53:50.063Z,32.80
2023-05-13T15:56:17.114Z,32.87
2023-05-13T15:58:44.261Z,32.58
2023-05-13T16:01:11.573Z,32.63
2023-05-13T16:03:38.868Z,32.80
2023-05-13T16:06:06.119Z,32.87
2023-05-13T16:08:33.177Z,32.90
2023-05-13T16:11:00.522Z,32.95
2023-05-13T16:13:27.780Z,32.81
2023-05-13T16:15:54.870Z,32.84
2023-05-13T16:18:22.171Z,32.78
2023-05-13T16:20:49.224Z,32.54
2023-05-13T16:23:16.471Z,32.50
2023-05-13T16:25:43.840Z,32.45
2023-05-13T16:28:10.982Z,32.57
2023-05-13T16:30:38.790Z,32.42
2023-05-13T16:33:06.029Z,32.49
2023-05-13T16:35:33.563Z,32.63
2023-05-13T16:38:00.809Z,32.79
2023-05-13T16:40:28.001Z,32.86
2023-05-13T16:42:57.111Z,33.03
2023-05-13T16:45:26.445Z,33.78
2023-05-13T16:47:53.977Z,34.10
2023-05-13T16:50:21.680Z,34.40
2023-05-13T16:52:49.020Z,34.62
2023-05-13T16:55:16.173Z,34.90
2023-05-13T16:57:43.682Z,35.19
2023-05-13T17:00:11.842Z,35.45
2023-05-13T17:02:39.211Z,35.53
2023-05-13T17:05:06.928Z,35.46
2023-05-13T17:07:33.977Z,35.45
2023-05-13T17:10:01.011Z,35.44
2023-05-13T17:12:28.366Z,35.59
2023-05-13T17:14:56.040Z,35.60
2023-05-13T17:17:23.104Z,35.77
2023-05-13T17:19:50.163Z,36.06
2023-05-13T17:22:17.272Z,36.42
2023-05-13T17:24:44.420Z,36.64
2023-05-13T17:27:11.677Z,37.02
2023-05-13T17:29:38.726Z,37.19
2023-05-13T17:32:06.787Z,37.37
2023-05-13T17:34:33.853Z,37.45
2023-05-13T17:37:01.022Z,37.67
2023-05-13T17:39:28.570Z,37.82
2023-05-13T17:41:55.905Z,37.91
2023-05-13T17:44:24.204Z,38.03
2023-05-13T17:46:51.230Z,38.38
2023-05-13T17:49:18.553Z,38.58
2023-05-13T17:51:46.142Z,38.65
2023-05-13T17:54:14.362Z,38.53
2023-05-13T17:56:41.410Z,38.66
2023-05-13T17:59:08.505Z,38.73
2023-05-13T18:01:35.697Z,38.94
2023-05-13T18:04:02.904Z,39.18
2023-05-13T18:06:29.953Z,39.38
2023-05-13T18:08:57.083Z,39.77
2023-05-13T18:11:24.154Z,39.92
2023-05-13T18:13:51.341Z,40.06
2023-05-13T18:16:19.544Z,39.99
2023-05-13T18:18:49.001Z,40.19
2023-05-13T18:21:16.429Z,40.26
2023-05-13T18:23:46.163Z,40.20
2023-05-13T18:26:13.596Z,40.19
2023-05-13T18:28:41.674Z,39.92
2023-05-13T18:31:08.752Z,40.07
2023-05-13T18:33:35.711Z,40.18
2023-05-13T18:36:02.814Z,40.16
2023-05-13T18:38:29.974Z,40.08
2023-05-13T18:41:01.823Z,40.11
2023-05-13T18:43:30.312Z,40.16
2023-05-13T18:45:58.155Z,40.21
2023-05-13T18:48:25.540Z,40.24
2023-05-13T18:54:16.451Z,40.23
2023-05-13T18:56:44.229Z,40.49
2023-05-13T18:59:11.568Z,40.66
2023-05-13T19:01:38.681Z,40.87
2023-05-13T19:04:05.937Z,41.07
2023-05-13T19:06:36.414Z,41.31
2023-05-13T19:09:03.568Z,41.69
2023-05-13T19:11:31.305Z,41.87
2023-05-13T19:13:58.768Z,41.98
2023-05-13T19:16:26.052Z,42.06
2023-05-13T19:18:53.730Z,42.26
2023-05-13T19:21:23.589Z,42.50
2023-05-13T19:23:50.947Z,42.71
2023-05-13T19:26:18.035Z,42.77
2023-05-13T19:28:45.968Z,42.81
2023-05-13T19:31:13.340Z,42.94
2023-05-13T19:33:41.593Z,43.01
2023-05-13T19:36:10.382Z,43.06
2023-05-13T19:38:37.424Z,43.04
2023-05-13T19:41:04.478Z,43.09
2023-05-13T19:43:31.738Z,43.01
2023-05-13T19:45:58.869Z,43.05
2023-05-13T19:48:27.704Z,43.12
2023-05-13T19:50:58.086Z,43.12
2023-05-13T19:53:25.237Z,43.19
2023-05-13T19:55:52.586Z,43.40
2023-05-13T19:58:19.638Z,43.54
2023-05-13T20:00:46.684Z,43.66
2023-05-13T20:03:13.934Z,43.68
2023-05-13T20:05:43.952Z,43.60
2023-05-13T20:08:11.321Z,43.42
2023-05-13T20:10:40.615Z,43.22
2023-05-13T20:13:08.164Z,43.17
2023-05-13T20:15:35.218Z,43.17
2023-05-13T20:18:02.280Z,43.34
2023-05-13T20:20:29.587Z,43.47
2023-05-13T20:22:56.592Z,43.54
2023-05-13T20:25:23.618Z,43.69
2023-05-13T20:27:50.961Z,43.73
2023-05-13T20:30:18.431Z,43.72
2023-05-13T20:32:46.002Z,43.60
2023-05-13T20:35:13.330Z,43.68
2023-05-13T20:37:40.694Z,43.72
2023-05-13T20:40:08.577Z,43.35
2023-05-13T20:42:35.603Z,43.18
2023-05-13T20:45:04.170Z,43.19
2023-05-13T20:47:31.638Z,43.17
2023-05-13T20:49:58.687Z,43.31
2023-05-13T20:52:26.857Z,43.70
2023-05-13T20:54:53.909Z,43.87
2023-05-13T20:57:21.026Z,44.21
2023-05-13T20:59:48.101Z,44.30
2023-05-13T21:02:15.152Z,44.41
2023-05-13T21:04:42.302Z,44.30
2023-05-13T21:07:09.458Z,44.36
2023-05-13T21:09:36.803Z,44.44
2023-05-13T21:12:04.495Z,44.51
2023-05-13T21:14:31.532Z,44.73
2023-05-13T21:16:58.606Z,44.77
2023-05-13T21:19:25.703Z,44.70
2023-05-13T21:21:53.005Z,44.54
2023-05-13T21:24:20.103Z,44.71
2023-05-13T21:26:47.252Z,44.80
2023-05-13T21:29:14.553Z,44.75
2023-05-13T21:31:42.804Z,44.85
2023-05-13T21:34:10.236Z,44.90
2023-05-13T21:36:39.229Z,45.01
2023-05-13T21:39:07.307Z,44.90
2023-05-13T21:41:34.390Z,44.88
2023-05-13T21:44:01.597Z,44.97
2023-05-13T21:46:28.847Z,44.97
2023-05-13T21:48:56.310Z,45.14
2023-05-13T21:51:23.463Z,45.17
2023-05-13T21:53:50.602Z,45.26
2023-05-13T21:56:17.652Z,45.49
2023-05-13T21:58:44.903Z,45.57
2023-05-13T22:01:11.991Z,45.67
2023-05-13T22:03:39.335Z,45.76
2023-05-13T22:06:06.811Z,45.85
2023-05-13T22:08:33.909Z,46.10
2023-05-13T22:11:01.777Z,46.28
2023-05-13T22:13:28.825Z,46.52
2023-05-13T22:15:55.934Z,46.78
2023-05-13T22:18:23.801Z,46.86
2023-05-13T22:20:51.368Z,47.05
2023-05-13T22:23:18.649Z,47.39
2023-05-13T22:25:45.904Z,47.77
2023-05-13T22:28:13.362Z,48.01
2023-05-13T22:30:40.507Z,48.29
2023-05-13T22:33:07.609Z,48.55
2023-05-13T22:35:36.733Z,48.77
2023-05-13T22:38:04.524Z,49.19
2023-05-13T22:40:31.569Z,49.45
2023-05-13T22:42:58.611Z,49.62
2023-05-13T22:45:26.019Z,49.90
2023-05-13T22:47:53.525Z,50.12
2023-05-13T22:50:21.064Z,50.34
2023-05-13T22:52:48.336Z,50.58
2023-05-13T22:55:15.360Z,50.53
2023-05-13T22:57:42.430Z,50.48
2023-05-13T23:00:10.910Z,50.70
2023-05-13T23:02:37.993Z,50.99
2023-05-13T23:05:05.835Z,50.76
2023-05-13T23:07:32.870Z,50.47
2023-05-13T23:09:59.915Z,50.61
2023-05-13T23:12:27.473Z,50.84
2023-05-13T23:14:54.519Z,51.15
2023-05-13T23:17:21.796Z,51.28
2023-05-13T23:19:48.928Z,51.36
2023-05-13T23:22:15.996Z,51.57
2023-05-13T23:24:43.326Z,52.02
2023-05-13T23:27:10.372Z,52.03
2023-05-13T23:29:37.419Z,51.99
2023-05-13T23:32:06.671Z,51.73
2023-05-13T23:34:34.277Z,51.51
2023-05-13T23:37:01.628Z,51.41
2023-05-13T23:39:28.677Z,51.07
2023-05-13T23:41:55.838Z,51.25
2023-05-13T23:44:23.430Z,51.70
2023-05-13T23:46:50.919Z,52.00
2023-05-13T23:49:18.501Z,52.08
2023-05-13T23:51:45.756Z,52.11
2023-05-13T23:54:12.800Z,51.66
2023-05-13T23:56:39.849Z,51.61
2023-05-13T23:59:08.659Z,51.33
